Time;durP1;ratioP1;P1;durP2;ratioP2;P2;SDS_P1;SDS_P2;PMS_P1;PMS_P2;Temp;Humidity;BMP_temperature;BMP_pressure;BME280_temperature;BME280_humidity;BME280_pressure;Samples;Min_cycle;Max_cycle;Signal;HPM_P1;HPM_P2
2021/12/31 00:02:12;;;;;;;29.23;8.37;;;12.00;99.90;;;;;;5040850;28;20269;-71
2021/12/31 00:04:38;;;;;;;45.40;11.63;;;12.00;99.90;;;;;;5053741;28;20190;-71
2021/12/31 00:07:03;;;;;;;35.97;10.13;;;12.00;99.90;;;;;;5037047;28;20286;-70
2021/12/31 00:09:29;;;;;;;35.17;9.57;;;12.00;99.90;;;;;;5036308;28;20230;-71
2021/12/31 00:11:54;;;;;;;25.13;8.37;;;12.00;99.90;;;;;;5053132;28;20274;-70
2021/12/31 00:14:21;;;;;;;53.47;13.27;;;12.60;99.90;;;;;;5040941;28;20678;-73
2021/12/31 00:16:47;;;;;;;45.23;11.97;;;12.00;99.90;;;;;;5035645;28;20286;-71
2021/12/31 00:19:14;;;;;;;33.00;9.57;;;12.00;99.90;;;;;;5037259;28;20262;-71
2021/12/31 00:21:42;;;;;;;19.70;7.13;;;11.90;99.90;;;;;;5040873;28;20526;-70
2021/12/31 00:24:07;;;;;;;34.03;9.93;;;12.00;99.90;;;;;;5037325;28;20185;-70
2021/12/31 00:26:34;;;;;;;25.00;8.40;;;12.00;99.90;;;;;;5036437;28;20214;-71
2021/12/31 00:29:00;;;;;;;39.70;10.83;;;12.00;99.90;;;;;;5040603;28;20203;-70
2021/12/31 00:31:26;;;;;;;28.47;8.83;;;12.00;99.90;;;;;;5034539;28;20186;-70
2021/12/31 00:33:52;;;;;;;35.70;10.03;;;12.00;99.90;;;;;;5037307;28;20754;-71
2021/12/31 00:36:18;;;;;;;30.87;8.80;;;12.00;99.90;;;;;;5035646;28;20207;-72
2021/12/31 00:38:43;;;;;;;40.37;11.23;;;12.00;99.90;;;;;;5036005;28;20183;-72
2021/12/31 00:41:09;;;;;;;30.90;8.97;;;12.00;99.90;;;;;;5038729;28;20290;-71
2021/12/31 00:43:35;;;;;;;33.57;9.93;;;11.10;99.90;;;;;;5036617;28;20249;-73
2021/12/31 00:46:02;;;;;;;32.00;9.93;;;11.70;99.90;;;;;;5047416;28;20231;-72
2021/12/31 00:48:28;;;;;;;48.70;13.07;;;12.00;99.90;;;;;;5050509;28;20199;-71
2021/12/31 00:50:53;;;;;;;32.73;9.80;;;12.00;99.90;;;;;;5040997;28;20180;-71
2021/12/31 00:53:19;;;;;;;46.30;12.23;;;12.00;99.90;;;;;;5034853;28;20175;-72
2021/12/31 00:55:44;;;;;;;36.90;10.57;;;12.00;99.90;;;;;;5036417;28;20204;-72
2021/12/31 00:58:10;;;;;;;42.47;11.60;;;12.00;99.90;;;;;;5037952;28;20295;-70
2021/12/31 01:00:36;;;;;;;33.03;9.77;;;12.00;99.90;;;;;;5035985;28;20502;-72
2021/12/31 01:03:01;;;;;;;53.90;13.13;;;12.00;99.90;;;;;;5036399;28;20906;-70
2021/12/31 01:05:27;;;;;;;35.97;10.67;;;;;;;;;;5036615;28;20619;-70
2021/12/31 01:07:53;;;;;;;38.13;10.20;;;11.90;99.90;;;;;;5036014;28;20253;-72
2021/12/31 01:10:19;;;;;;;31.70;9.03;;;12.00;99.90;;;;;;5036690;28;20179;-71
2021/12/31 01:12:45;;;;;;;43.87;11.87;;;12.00;99.90;;;;;;5036621;28;20204;-71
2021/12/31 01:16:00;;;;;;;37.77;10.73;;;12.00;99.90;;;;;;5034224;28;20176;-71
2021/12/31 01:20:23;;;;;;;20.90;7.27;;;12.00;99.90;;;;;;5040826;28;20206;-71
2021/12/31 01:22:49;;;;;;;41.43;11.63;;;12.00;99.90;;;;;;5032088;28;20183;-70
2021/12/31 01:25:14;;;;;;;24.67;8.20;;;11.80;99.90;;;;;;5035285;28;20370;-71
2021/12/31 01:27:40;;;;;;;37.83;10.03;;;12.00;99.90;;;;;;5037781;28;20208;-72
2021/12/31 01:30:13;;;;;;;42.20;11.63;;;12.00;99.90;;;;;;5033449;28;20194;-71
2021/12/31 01:32:40;;;;;;;34.43;9.60;;;12.00;99.90;;;;;;5036695;28;20179;-71
2021/12/31 01:35:05;;;;;;;36.13;10.17;;;12.00;99.90;;;;;;5035209;28;20185;-70
2021/12/31 01:37:31;;;;;;;55.37;13.40;;;12.00;99.90;;;;;;5034675;28;20709;-71
2021/12/31 01:39:57;;;;;;;37.50;10.67;;;12.00;99.90;;;;;;5052032;28;20187;-72
2021/12/31 01:42:29;;;;;;;35.67;9.67;;;12.00;99.90;;;;;;5036102;28;20234;-74
2021/12/31 01:44:58;;;;;;;38.80;10.73;;;12.00;99.90;;;;;;5034522;28;22043;-71
2021/12/31 01:47:33;;;;;;;31.70;9.30;;;12.00;99.90;;;;;;5038512;28;20195;-70
2021/12/31 01:50:02;;;;;;;37.23;10.07;;;12.00;99.90;;;;;;5037791;28;20195;-71
2021/12/31 01:52:27;;;;;;;28.47;8.33;;;12.00;99.90;;;;;;5040337;28;20514;-71
2021/12/31 01:54:53;;;;;;;30.10;8.37;;;12.00;99.90;;;;;;5036743;28;20181;-71
2021/12/31 01:57:20;;;;;;;36.33;9.97;;;12.10;99.90;;;;;;5038484;28;20652;-70
2021/12/31 01:59:46;;;;;;;41.97;11.03;;;12.00;99.90;;;;;;5038987;28;20698;-71
2021/12/31 02:02:11;;;;;;;22.67;7.03;;;12.10;99.90;;;;;;5040755;28;20179;-71
2021/12/31 02:04:38;;;;;;;27.97;8.37;;;12.10;99.90;;;;;;5039115;28;20192;-71
2021/12/31 02:07:05;;;;;;;43.23;11.57;;;12.10;99.90;;;;;;5046093;28;20652;-73
2021/12/31 02:09:35;;;;;;;28.60;8.70;;;12.10;99.90;;;;;;5038357;28;20211;-71
2021/12/31 02:12:01;;;;;;;40.83;10.77;;;12.10;99.90;;;;;;5041404;28;20180;-71
2021/12/31 02:14:28;;;;;;;42.03;11.63;;;12.20;99.90;;;;;;5036490;28;20513;-71
2021/12/31 02:16:54;;;;;;;34.97;9.60;;;12.10;99.90;;;;;;5035223;28;20222;-70
2021/12/31 02:19:27;;;;;;;33.93;9.40;;;12.10;99.90;;;;;;5040439;28;20176;-71
2021/12/31 02:21:53;;;;;;;15.20;6.13;;;12.00;99.90;;;;;;5040717;28;20237;-72
2021/12/31 02:24:21;;;;;;;45.77;11.97;;;12.10;99.90;;;;;;5037480;28;20991;-71
2021/12/31 02:26:46;;;;;;;36.77;10.23;;;12.00;99.90;;;;;;5047035;28;20250;-71
2021/12/31 02:29:12;;;;;;;28.90;9.13;;;12.10;99.90;;;;;;5043344;28;20215;-71
2021/12/31 02:31:38;;;;;;;27.83;8.63;;;12.10;99.90;;;;;;5038497;28;20214;-71
2021/12/31 02:34:03;;;;;;;21.30;7.50;;;12.10;99.90;;;;;;5046986;28;20564;-70
2021/12/31 02:36:29;;;;;;;27.07;8.03;;;12.10;99.90;;;;;;5039434;28;20231;-71
2021/12/31 02:38:54;;;;;;;59.83;14.60;;;12.10;99.90;;;;;;5040727;28;20199;-71
2021/12/31 02:41:20;;;;;;;29.33;9.13;;;12.00;99.90;;;;;;5041495;28;20722;-71
2021/12/31 02:43:45;;;;;;;31.67;9.57;;;12.10;99.90;;;;;;5040848;28;20328;-72
2021/12/31 02:46:11;;;;;;;35.37;10.37;;;12.40;99.90;;;;;;5036241;28;20277;-70
2021/12/31 02:48:37;;;;;;;27.73;8.23;;;12.10;99.90;;;;;;5041930;28;20207;-73
2021/12/31 02:51:03;;;;;;;38.00;10.27;;;12.20;99.90;;;;;;5040293;28;20188;-72
2021/12/31 02:53:41;;;;;;;35.97;10.07;;;12.20;99.90;;;;;;5039587;28;20240;-70
2021/12/31 02:56:12;;;;;;;39.57;10.73;;;11.50;99.90;;;;;;5039007;28;20255;-72
2021/12/31 02:58:39;;;;;;;36.07;9.47;;;12.10;99.90;;;;;;5044194;28;20222;-71
2021/12/31 03:01:07;;;;;;;33.60;9.50;;;12.20;99.90;;;;;;5036997;28;20179;-72
2021/12/31 03:03:36;;;;;;;34.43;9.43;;;12.10;99.90;;;;;;5040660;28;20196;-72
2021/12/31 03:06:03;;;;;;;31.83;9.30;;;12.10;99.90;;;;;;5038997;28;20204;-71
2021/12/31 03:08:31;;;;;;;24.97;7.87;;;12.10;99.90;;;;;;5041159;28;20209;-70
2021/12/31 03:11:00;;;;;;;28.07;8.43;;;12.20;99.90;;;;;;5047657;28;20241;-70
2021/12/31 03:13:28;;;;;;;69.73;16.10;;;12.20;99.90;;;;;;5040011;28;20180;-71
2021/12/31 03:15:54;;;;;;;18.17;6.87;;;11.90;99.90;;;;;;5039386;28;20285;-70
2021/12/31 03:18:20;;;;;;;31.07;9.40;;;12.10;99.90;;;;;;5044367;28;21084;-71
2021/12/31 03:21:08;;;;;;;22.43;7.30;;;12.20;99.90;;;;;;5041558;28;20180;-72
2021/12/31 03:23:33;;;;;;;30.63;8.87;;;12.20;99.90;;;;;;5034442;28;20562;-71
2021/12/31 03:25:59;;;;;;;43.83;11.33;;;12.20;99.90;;;;;;5038646;28;20269;-71
2021/12/31 03:28:26;;;;;;;42.33;11.37;;;;;;;;;;5038556;28;20207;-70
2021/12/31 03:30:52;;;;;;;21.83;6.53;;;12.10;99.90;;;;;;5035081;28;20899;-72
2021/12/31 03:33:18;;;;;;;24.07;7.73;;;12.20;99.90;;;;;;5038186;28;20250;-71
2021/12/31 03:35:44;;;;;;;31.27;9.07;;;;;;;;;;5043077;28;20742;-72
2021/12/31 03:38:11;;;;;;;40.53;10.97;;;;;;;;;;5054211;23;20279;-80
2021/12/31 03:40:40;;;;;;;45.53;12.40;;;12.20;99.90;;;;;;5032615;28;20215;-80
2021/12/31 03:43:14;;;;;;;31.33;8.93;;;12.20;99.90;;;;;;5037045;28;20197;-80
2021/12/31 03:45:50;;;;;;;;;;;;;;;;;;;;;
2021/12/31 03:48:16;;;;;;;37.23;10.07;;;;;;;;;;5037643;28;20187;-80
2021/12/31 03:50:45;;;;;;;31.83;9.33;;;12.20;99.90;;;;;;5020452;28;20678;-80
2021/12/31 03:53:10;;;;;;;36.77;7.87;;;12.10;99.90;;;;;;5040116;22;20548;-55
2021/12/31 03:55:36;;;;;;;38.37;8.30;;;12.40;99.90;;;;;;5010921;28;20187;-55
2021/12/31 03:58:01;;;;;;;24.90;5.77;;;12.20;99.90;;;;;;5009826;28;20482;-54
2021/12/31 04:00:29;;;;;;;47.23;10.30;;;12.20;99.90;;;;;;5011030;28;20193;-55
2021/12/31 04:02:55;;;;;;;50.67;10.93;;;12.20;99.90;;;;;;5018810;28;20196;-55
2021/12/31 04:05:23;;;;;;;43.17;9.70;;;12.20;99.90;;;;;;5016623;28;20180;-55
2021/12/31 04:07:49;;;;;;;38.90;8.50;;;12.20;99.90;;;;;;5014295;28;21569;-55
2021/12/31 04:10:14;;;;;;;37.13;8.20;;;12.20;99.90;;;;;;5008462;28;20183;-54
2021/12/31 04:12:40;;;;;;;45.87;9.93;;;12.20;99.90;;;;;;5010359;28;20196;-55
2021/12/31 04:15:06;;;;;;;55.37;11.87;;;12.30;99.90;;;;;;5008878;28;20177;-54
2021/12/31 04:17:31;;;;;;;31.20;6.70;;;12.30;99.90;;;;;;5014976;28;20180;-54
2021/12/31 04:19:58;;;;;;;21.63;4.73;;;12.30;99.90;;;;;;5009074;28;20217;-55
2021/12/31 04:22:26;;;;;;;39.77;8.70;;;12.30;99.90;;;;;;5016327;28;20211;-55
2021/12/31 04:24:52;;;;;;;72.83;15.37;;;12.20;99.90;;;;;;5004413;28;20189;-55
2021/12/31 04:27:19;;;;;;;42.83;9.20;;;12.30;99.90;;;;;;5012712;28;20192;-55
2021/12/31 04:29:51;;;;;;;50.07;10.43;;;12.30;99.90;;;;;;5015960;28;20208;-55
2021/12/31 04:32:18;;;;;;;26.13;5.73;;;12.30;99.90;;;;;;5020978;28;20302;-54
2021/12/31 04:34:43;;;;;;;34.10;7.20;;;12.30;99.90;;;;;;5014425;28;20173;-54
2021/12/31 04:37:09;;;;;;;26.47;5.93;;;12.30;99.90;;;;;;5020005;28;20184;-55
2021/12/31 04:39:34;;;;;;;49.70;10.63;;;12.30;99.90;;;;;;5009291;28;20195;-55
2021/12/31 04:42:00;;;;;;;34.33;7.47;;;12.30;99.90;;;;;;5009689;28;20288;-55
2021/12/31 04:44:26;;;;;;;51.40;11.20;;;12.30;99.90;;;;;;5009319;28;20196;-53
2021/12/31 04:46:51;;;;;;;38.87;8.47;;;12.30;99.90;;;;;;5008391;28;20188;-54
2021/12/31 04:49:17;;;;;;;34.53;7.67;;;12.30;99.90;;;;;;5016476;28;20215;-55
2021/12/31 04:51:43;;;;;;;26.47;5.80;;;;;;;;;;5014921;28;20185;-55
2021/12/31 04:54:14;;;;;;;66.70;14.27;;;12.20;99.90;;;;;;5010219;28;20212;-55
2021/12/31 04:56:40;;;;;;;32.00;7.07;;;12.20;99.90;;;;;;5010540;28;20510;-55
2021/12/31 04:59:05;;;;;;;30.20;6.53;;;12.20;99.90;;;;;;5012420;28;20193;-55
2021/12/31 05:01:31;;;;;;;44.33;9.60;;;12.00;99.90;;;;;;5005873;28;20200;-55
2021/12/31 05:03:57;;;;;;;36.30;8.07;;;12.20;99.90;;;;;;5010493;28;20895;-55
2021/12/31 05:06:22;;;;;;;42.97;9.37;;;12.30;99.90;;;;;;5011458;28;20188;-55
2021/12/31 05:08:48;;;;;;;39.27;8.53;;;12.30;99.90;;;;;;5010062;28;20207;-55
2021/12/31 05:11:13;;;;;;;45.77;10.03;;;12.30;99.90;;;;;;5013273;28;20272;-55
2021/12/31 05:13:39;;;;;;;46.63;10.30;;;12.30;99.90;;;;;;5011045;28;20223;-55
2021/12/31 05:16:06;;;;;;;43.37;9.50;;;12.30;99.90;;;;;;5009590;28;20184;-55
2021/12/31 05:18:31;;;;;;;40.27;8.97;;;12.20;99.90;;;;;;5013614;28;20180;-54
2021/12/31 05:20:57;;;;;;;52.83;11.50;;;12.30;99.90;;;;;;5007708;28;20847;-55
2021/12/31 05:23:23;;;;;;;61.97;13.23;;;12.40;99.90;;;;;;5005890;28;20201;-55
2021/12/31 05:25:49;;;;;;;34.47;7.67;;;12.30;99.90;;;;;;5013501;28;20187;-55
2021/12/31 05:28:14;;;;;;;37.53;8.13;;;12.30;99.90;;;;;;5012068;28;20278;-54
2021/12/31 05:30:40;;;;;;;30.17;6.60;;;12.40;99.90;;;;;;5011551;28;20253;-54
2021/12/31 05:33:06;;;;;;;65.17;13.60;;;12.30;99.90;;;;;;5003392;28;20215;-55
2021/12/31 05:35:31;;;;;;;36.07;8.03;;;12.30;99.90;;;;;;5010916;28;20625;-56
2021/12/31 05:37:57;;;;;;;40.93;8.83;;;12.30;99.90;;;;;;5013826;28;20216;-55
2021/12/31 05:40:23;;;;;;;32.93;7.60;;;12.30;99.90;;;;;;5008356;28;20537;-55
2021/12/31 05:42:49;;;;;;;45.17;9.93;;;12.30;99.90;;;;;;5013413;28;20216;-55
2021/12/31 05:45:14;;;;;;;52.30;11.23;;;12.40;99.90;;;;;;5006606;28;20564;-55
2021/12/31 05:47:40;;;;;;;28.67;6.50;;;12.30;99.90;;;;;;5011446;28;20234;-54
2021/12/31 05:50:18;;;;;;;43.87;9.63;;;12.30;99.90;;;;;;5011525;28;20584;-55
2021/12/31 05:52:43;;;;;;;41.43;8.80;;;12.30;99.90;;;;;;5015880;28;20224;-54
2021/12/31 05:55:09;;;;;;;37.27;8.30;;;12.30;99.90;;;;;;5011031;28;20242;-54
2021/12/31 05:57:34;;;;;;;36.80;7.93;;;12.20;99.90;;;;;;5013387;28;20200;-55
2021/12/31 06:00:00;;;;;;;42.13;9.30;;;12.20;99.90;;;;;;5018257;28;20188;-53
2021/12/31 06:02:25;;;;;;;34.57;7.37;;;12.20;99.90;;;;;;5016542;28;20684;-54
2021/12/31 06:04:51;;;;;;;27.43;6.13;;;12.30;99.90;;;;;;5016965;28;20188;-55
2021/12/31 06:07:16;;;;;;;35.17;7.77;;;12.30;99.90;;;;;;5015849;28;20267;-55
2021/12/31 06:09:42;;;;;;;36.23;7.93;;;12.30;99.90;;;;;;5010239;28;20299;-54
2021/12/31 06:12:08;;;;;;;32.77;7.57;;;12.30;99.90;;;;;;5012827;28;20205;-54
2021/12/31 06:14:33;;;;;;;28.67;6.43;;;12.30;99.90;;;;;;5009500;28;20188;-54
2021/12/31 06:17:06;;;;;;;41.07;8.77;;;12.30;99.90;;;;;;5014035;28;20191;-55
2021/12/31 06:19:32;;;;;;;35.63;7.83;;;12.00;99.90;;;;;;5011158;28;20192;-55
2021/12/31 06:21:58;;;;;;;36.03;7.90;;;12.30;99.90;;;;;;5012043;28;20196;-54
2021/12/31 06:24:24;;;;;;;51.93;11.43;;;12.30;99.90;;;;;;5006525;28;24759;-54
2021/12/31 06:26:50;;;;;;;77.93;16.83;;;12.20;99.90;;;;;;5002628;28;20192;-55
2021/12/31 06:29:15;;;;;;;35.40;7.90;;;12.30;99.90;;;;;;5014917;28;20684;-54
2021/12/31 06:31:41;;;;;;;34.87;7.67;;;;;;;;;;5012063;28;20470;-55
2021/12/31 06:34:06;;;;;;;56.57;12.10;;;12.20;99.90;;;;;;5013763;28;20185;-55
2021/12/31 06:36:32;;;;;;;25.80;5.73;;;12.20;99.90;;;;;;5023918;28;20179;-55
2021/12/31 06:39:01;;;;;;;23.27;5.17;;;12.20;99.90;;;;;;5021512;28;20490;-54
2021/12/31 06:41:26;;;;;;;27.83;6.27;;;12.20;99.90;;;;;;5025561;28;20233;-55
2021/12/31 06:43:52;;;;;;;59.23;12.47;;;12.20;99.90;;;;;;5020030;28;20678;-54
2021/12/31 06:46:19;;;;;;;31.53;7.07;;;12.20;99.90;;;;;;5020477;28;20264;-55
2021/12/31 06:48:46;;;;;;;23.23;5.20;;;12.20;99.90;;;;;;5019857;28;20230;-55
2021/12/31 06:51:11;;;;;;;30.17;6.43;;;12.10;99.90;;;;;;5012829;28;20251;-54
2021/12/31 06:53:37;;;;;;;35.73;7.73;;;12.20;99.90;;;;;;5017629;28;20298;-54
2021/12/31 06:56:03;;;;;;;34.77;7.67;;;11.80;99.90;;;;;;5017762;28;22093;-55
2021/12/31 06:58:28;;;;;;;28.57;6.20;;;12.30;99.90;;;;;;5018374;28;20599;-54
2021/12/31 07:00:54;;;;;;;64.23;13.80;;;12.20;99.90;;;;;;5005037;28;20596;-54
2021/12/31 07:03:20;;;;;;;56.73;11.70;;;12.30;99.90;;;;;;5008906;28;20542;-54
2021/12/31 07:05:45;;;;;;;24.33;5.47;;;12.30;99.90;;;;;;5009911;28;20646;-53
2021/12/31 07:08:11;;;;;;;25.67;5.53;;;12.30;99.90;;;;;;5025091;28;20192;-53
2021/12/31 07:10:37;;;;;;;15.00;3.70;;;12.40;99.90;;;;;;5015725;28;20664;-54
2021/12/31 07:13:05;;;;;;;62.73;13.33;;;12.30;99.90;;;;;;5021438;28;20205;-54
2021/12/31 07:15:31;;;;;;;28.90;6.20;;;12.40;99.90;;;;;;5011898;28;20177;-54
2021/12/31 07:17:57;;;;;;;26.47;6.13;;;12.40;99.90;;;;;;5014830;28;20586;-54
2021/12/31 07:20:23;;;;;;;19.50;4.53;;;12.40;99.90;;;;;;5024336;28;20373;-53
2021/12/31 07:22:48;;;;;;;34.57;7.63;;;12.40;99.90;;;;;;5011205;28;20306;-54
2021/12/31 07:25:14;;;;;;;21.13;4.77;;;12.40;99.90;;;;;;5009305;28;20210;-54
2021/12/31 07:27:39;;;;;;;33.40;7.03;;;12.40;99.90;;;;;;5015998;28;20247;-54
2021/12/31 07:30:06;;;;;;;35.13;7.73;;;12.40;99.90;;;;;;5016321;28;20240;-55
2021/12/31 07:32:36;;;;;;;21.73;4.63;;;12.40;99.90;;;;;;5020448;28;20207;-53
2021/12/31 07:35:01;;;;;;;42.67;9.23;;;12.40;99.90;;;;;;5016337;28;20181;-54
2021/12/31 07:37:27;;;;;;;18.40;4.07;;;12.40;99.90;;;;;;5021981;28;20185;-53
2021/12/31 07:39:59;;;;;;;28.57;6.17;;;12.50;99.90;;;;;;5017275;28;20260;-53
2021/12/31 07:42:24;;;;;;;18.60;4.37;;;12.40;99.90;;;;;;5020575;28;20239;-54
2021/12/31 07:44:50;;;;;;;93.73;19.83;;;12.30;99.90;;;;;;5003823;28;20720;-54
2021/12/31 07:47:15;;;;;;;30.53;6.67;;;12.30;99.90;;;;;;5009997;28;20195;-54
2021/12/31 07:49:41;;;;;;;63.73;13.40;;;12.30;99.90;;;;;;5013665;28;20208;-54
2021/12/31 07:52:06;;;;;;;57.90;12.40;;;12.30;99.90;;;;;;5011283;28;20235;-53
2021/12/31 07:54:32;;;;;;;43.53;9.20;;;12.40;99.90;;;;;;5010239;28;20250;-53
2021/12/31 07:56:57;;;;;;;50.80;10.97;;;12.20;99.90;;;;;;5015772;28;20548;-54
2021/12/31 07:59:23;;;;;;;74.50;16.07;;;12.30;99.90;;;;;;5010716;28;20180;-55
2021/12/31 08:01:49;;;;;;;54.57;11.63;;;;;;;;;;5007200;28;20285;-54
2021/12/31 08:04:14;;;;;;;27.70;6.50;;;11.70;99.90;;;;;;5014494;28;20197;-53
2021/12/31 08:06:40;;;;;;;42.63;9.37;;;12.40;99.90;;;;;;5011883;28;20199;-54
2021/12/31 08:09:05;;;;;;;32.70;7.17;;;12.70;99.90;;;;;;5014365;28;20205;-54
2021/12/31 08:11:31;;;;;;;39.53;8.47;;;12.40;99.90;;;;;;5013108;28;20258;-55
2021/12/31 08:13:56;;;;;;;44.77;10.03;;;12.30;99.90;;;;;;5006424;28;20204;-54
2021/12/31 08:16:22;;;;;;;53.00;11.37;;;12.00;99.90;;;;;;5000414;28;20184;-53
2021/12/31 08:18:47;;;;;;;29.70;6.47;;;12.50;99.90;;;;;;5008767;28;20216;-53
2021/12/31 08:21:13;;;;;;;46.17;9.90;;;12.50;99.90;;;;;;5020799;28;20290;-51
2021/12/31 08:23:38;;;;;;;33.90;7.40;;;12.50;99.90;;;;;;5008978;28;20208;-51
2021/12/31 08:26:05;;;;;;;22.00;4.90;;;12.50;99.90;;;;;;5012271;28;20234;-51
2021/12/31 08:28:30;;;;;;;53.37;11.23;;;12.50;99.90;;;;;;4999696;28;20211;-54
2021/12/31 08:30:58;;;;;;;54.60;11.77;;;12.50;99.90;;;;;;4997889;28;20241;-54
2021/12/31 08:33:24;;;;;;;48.60;10.40;;;12.60;99.90;;;;;;5008041;28;20327;-55
2021/12/31 08:35:50;;;;;;;37.43;8.17;;;12.60;99.90;;;;;;5010505;28;20500;-54
2021/12/31 08:38:16;;;;;;;62.43;13.07;;;12.60;99.90;;;;;;5014641;28;20827;-54
2021/12/31 08:40:41;;;;;;;41.10;8.83;;;12.90;99.90;;;;;;5007644;28;20333;-56
2021/12/31 08:43:07;;;;;;;55.23;11.67;;;12.70;99.90;;;;;;5003609;28;20200;-54
2021/12/31 08:45:33;;;;;;;26.10;5.67;;;12.70;99.90;;;;;;5012615;28;20184;-53
2021/12/31 08:47:59;;;;;;;45.77;9.87;;;12.80;99.90;;;;;;5015549;28;20920;-54
2021/12/31 08:50:25;;;;;;;69.13;14.50;;;12.70;99.90;;;;;;5011206;28;20180;-55
2021/12/31 08:52:51;;;;;;;38.60;8.57;;;12.90;99.90;;;;;;5007018;28;20296;-54
2021/12/31 08:55:17;;;;;;;23.97;5.50;;;12.40;99.90;;;;;;5022185;28;20187;-54
2021/12/31 08:57:43;;;;;;;37.50;8.17;;;12.80;99.90;;;;;;5012207;28;20545;-54
2021/12/31 09:00:10;;;;;;;41.83;8.90;;;13.30;99.90;;;;;;5008197;28;20251;-55
2021/12/31 09:02:35;;;;;;;33.53;7.23;;;12.80;99.90;;;;;;5019793;28;20282;-54
2021/12/31 09:05:01;;;;;;;42.83;8.97;;;12.80;99.90;;;;;;5010020;28;20184;-53
2021/12/31 09:07:27;;;;;;;40.93;8.80;;;12.90;99.90;;;;;;5008335;28;20227;-54
2021/12/31 09:09:53;;;;;;;42.50;8.87;;;12.90;99.90;;;;;;5012485;28;20362;-55
2021/12/31 09:12:18;;;;;;;49.43;10.63;;;12.90;99.90;;;;;;5008158;28;20206;-55
2021/12/31 09:14:44;;;;;;;47.07;10.13;;;12.90;99.90;;;;;;5001893;28;20477;-52
2021/12/31 09:17:09;;;;;;;35.77;7.87;;;12.90;99.90;;;;;;5018313;28;20242;-55
2021/12/31 09:19:35;;;;;;;49.33;10.63;;;13.00;99.90;;;;;;5010700;28;20192;-53
2021/12/31 09:22:03;;;;;;;70.73;15.07;;;13.00;99.90;;;;;;5013425;28;20208;-55
2021/12/31 09:24:30;;;;;;;65.07;13.93;;;13.10;99.90;;;;;;5004257;28;20235;-55
2021/12/31 09:26:55;;;;;;;41.97;9.13;;;13.10;99.90;;;;;;5008462;28;20189;-54
2021/12/31 09:29:23;;;;;;;53.23;11.47;;;13.10;99.90;;;;;;5015745;28;20224;-55
2021/12/31 09:31:49;;;;;;;38.23;8.43;;;;;;;;;;5022315;28;20183;-54
2021/12/31 09:34:15;;;;;;;38.10;7.80;;;13.20;99.90;;;;;;5029547;28;20248;-54
2021/12/31 09:36:41;;;;;;;96.53;19.43;;;;;;;;;;5036364;23;20193;-48
2021/12/31 09:39:06;;;;;;;50.20;13.57;;;13.20;99.90;;;;;;5038797;28;20207;-48
2021/12/31 09:41:32;;;;;;;55.00;14.53;;;13.20;99.90;;;;;;5029372;28;20647;-48
2021/12/31 09:43:58;;;;;;;19.70;7.03;;;13.30;99.90;;;;;;5038346;28;20814;-48
2021/12/31 09:46:23;;;;;;;16.80;6.50;;;13.20;99.90;;;;;;5039766;28;20184;-48
2021/12/31 09:48:49;;;;;;;40.20;11.50;;;13.30;99.90;;;;;;5037077;28;20650;-48
2021/12/31 09:51:17;;;;;;;41.67;11.97;;;13.20;99.90;;;;;;5032318;28;20507;-48
2021/12/31 09:53:42;;;;;;;70.30;17.73;;;13.30;99.90;;;;;;5027496;28;20234;-48
2021/12/31 09:56:08;;;;;;;54.83;14.50;;;13.20;99.90;;;;;;5034359;28;20580;-48
2021/12/31 09:58:35;;;;;;;27.47;8.43;;;13.30;99.90;;;;;;5039785;28;20252;-48
2021/12/31 10:01:02;;;;;;;38.43;11.17;;;13.20;99.90;;;;;;5033451;28;20655;-47
2021/12/31 10:03:32;;;;;;;53.30;14.13;;;13.30;99.90;;;;;;5035513;28;20199;-48
2021/12/31 10:06:00;;;;;;;47.23;13.07;;;13.20;99.90;;;;;;5038455;28;20234;-47
2021/12/31 10:08:27;;;;;;;49.97;13.87;;;13.20;99.90;;;;;;5030983;28;20212;-47
2021/12/31 10:11:11;;;;;;;40.50;11.73;;;13.30;99.90;;;;;;5031844;28;20259;-48
2021/12/31 10:13:46;;;;;;;29.40;8.70;;;13.30;99.90;;;;;;5016671;28;20294;-48
2021/12/31 10:16:19;;;;;;;52.80;14.03;;;13.30;99.90;;;;;;5028035;28;20548;-47
2021/12/31 10:18:44;;;;;;;31.23;9.83;;;12.80;99.90;;;;;;5040372;28;20211;-48
2021/12/31 10:21:09;;;;;;;40.27;11.83;;;13.30;99.90;;;;;;5042836;28;20268;-48
2021/12/31 10:23:39;;;;;;;34.87;10.30;;;13.30;99.90;;;;;;5045012;28;20218;-48
2021/12/31 10:26:07;;;;;;;41.90;12.13;;;13.40;99.90;;;;;;5040190;28;20183;-48
2021/12/31 10:28:33;;;;;;;28.27;8.47;;;13.40;99.90;;;;;;5036695;28;20639;-48
2021/12/31 10:31:15;;;;;;;30.43;9.10;;;13.40;99.90;;;;;;5037932;28;20198;-48
2021/12/31 10:33:42;;;;;;;56.53;15.30;;;13.50;99.90;;;;;;5029077;28;20275;-48
2021/12/31 10:36:08;;;;;;;39.07;11.20;;;;;;;;;;5048405;28;20198;-48
2021/12/31 10:38:39;;;;;;;48.93;13.07;;;13.50;99.90;;;;;;5039816;28;20504;-48
2021/12/31 10:41:06;;;;;;;48.77;12.47;;;13.50;99.90;;;;;;5032071;28;20656;-48
2021/12/31 10:43:31;;;;;;;41.80;11.97;;;13.70;99.90;;;;;;5025426;28;20557;-48
2021/12/31 10:46:01;;;;;;;49.53;13.40;;;13.40;99.90;;;;;;5012729;28;20202;-48
2021/12/31 10:48:47;;;;;;;46.73;12.00;;;13.50;99.90;;;;;;5032553;28;20219;-48
2021/12/31 10:51:15;;;;;;;45.67;12.80;;;13.40;99.90;;;;;;5032607;28;20198;-48
2021/12/31 10:53:44;;;;;;;47.77;13.13;;;13.30;99.90;;;;;;5027012;28;20212;-48
2021/12/31 10:56:12;;;;;;;41.73;11.97;;;12.80;99.90;;;;;;5037107;28;20211;-48
2021/12/31 10:58:40;;;;;;;31.90;9.73;;;13.40;99.90;;;;;;5034912;28;20590;-48
2021/12/31 11:01:08;;;;;;;51.13;14.10;;;13.40;99.90;;;;;;5036812;28;20180;-48
2021/12/31 11:03:35;;;;;;;70.77;17.57;;;13.40;99.90;;;;;;5022647;28;20199;-48
2021/12/31 11:06:03;;;;;;;64.20;16.27;;;13.50;99.90;;;;;;5034074;28;20181;-48
2021/12/31 11:08:31;;;;;;;61.17;16.00;;;13.40;99.90;;;;;;5036735;28;20215;-48
2021/12/31 11:10:58;;;;;;;126.53;30.33;;;13.40;99.90;;;;;;5026776;28;20199;-48
2021/12/31 11:13:30;;;;;;;53.63;14.10;;;13.40;99.90;;;;;;5028865;28;20730;-48
2021/12/31 11:15:58;;;;;;;46.80;12.70;;;13.40;99.90;;;;;;5036823;28;20187;-48
2021/12/31 11:18:23;;;;;;;47.43;12.90;;;13.40;99.90;;;;;;5022813;28;20797;-48
2021/12/31 11:21:10;;;;;;;35.93;10.17;;;13.30;99.90;;;;;;5035893;28;20207;-48
2021/12/31 11:23:36;;;;;;;61.27;15.50;;;13.30;99.90;;;;;;5037089;28;20397;-48
2021/12/31 11:26:07;;;;;;;22.00;7.47;;;13.30;99.90;;;;;;5039571;28;20566;-48
2021/12/31 11:28:38;;;;;;;40.17;10.87;;;13.30;99.90;;;;;;5037500;28;20636;-48
2021/12/31 11:31:16;;;;;;;38.37;10.37;;;13.30;99.90;;;;;;5019617;28;20189;-48
2021/12/31 11:33:43;;;;;;;35.87;10.10;;;13.20;99.90;;;;;;5031415;28;20758;-48
2021/12/31 11:36:11;;;;;;;72.23;17.13;;;13.20;99.90;;;;;;5009686;28;20239;-48
2021/12/31 11:38:40;;;;;;;46.57;12.23;;;13.20;99.90;;;;;;5030314;28;20249;-48
2021/12/31 11:41:11;;;;;;;71.20;16.77;;;13.10;99.90;;;;;;5026725;28;20225;-48
2021/12/31 11:43:41;;;;;;;51.77;13.20;;;13.20;99.90;;;;;;5033309;28;20210;-48
2021/12/31 11:46:12;;;;;;;54.63;13.70;;;13.20;99.90;;;;;;5021958;28;20179;-48
2021/12/31 11:51:16;;;;;;;41.20;11.00;;;13.20;99.90;;;;;;5033688;28;20198;-48
2021/12/31 11:54:00;;;;;;;34.97;9.67;;;13.20;99.90;;;;;;5017148;28;20206;-48
2021/12/31 11:56:34;;;;;;;41.57;11.43;;;13.30;99.90;;;;;;5028934;28;20306;-48
2021/12/31 11:59:08;;;;;;;41.77;11.23;;;13.20;99.90;;;;;;5031069;28;20191;-48
2021/12/31 12:01:37;;;;;;;70.40;17.30;;;13.40;99.90;;;;;;5024366;28;20192;-48
2021/12/31 12:04:31;;;;;;;48.17;12.47;;;13.30;99.90;;;;;;5035978;28;20293;-48
2021/12/31 12:07:03;;;;;;;39.03;10.73;;;13.30;99.90;;;;;;5033193;28;20703;-48
2021/12/31 12:09:40;;;;;;;51.90;13.50;;;12.50;99.90;;;;;;5027529;28;20236;-47
2021/12/31 12:12:11;;;;;;;23.80;7.33;;;13.20;99.90;;;;;;5008739;28;20647;-47
2021/12/31 12:14:40;;;;;;;54.50;14.30;;;13.30;99.90;;;;;;5033150;28;20184;-48
2021/12/31 12:17:07;;;;;;;39.00;10.67;;;13.30;99.90;;;;;;5028993;28;20179;-48
2021/12/31 12:19:51;;;;;;;53.57;14.07;;;13.30;99.90;;;;;;5034701;28;20183;-48
2021/12/31 12:22:25;;;;;;;58.67;15.00;;;13.30;99.90;;;;;;5029130;28;20299;-48
2021/12/31 12:24:52;;;;;;;49.47;13.43;;;13.40;99.90;;;;;;5027793;28;20213;-48
2021/12/31 12:27:22;;;;;;;53.60;14.03;;;13.40;99.90;;;;;;5016730;28;20711;-48
2021/12/31 12:29:49;;;;;;;38.17;10.63;;;13.50;99.90;;;;;;5039512;28;20211;-48
2021/12/31 12:32:17;;;;;;;67.20;16.83;;;13.40;99.90;;;;;;5033901;28;20217;-48
2021/12/31 12:34:42;;;;;;;40.67;11.13;;;13.40;99.90;;;;;;5027432;28;20194;-48
2021/12/31 12:37:09;;;;;;;48.27;12.43;;;13.40;99.90;;;;;;5033026;28;20223;-48
2021/12/31 12:39:34;;;;;;;118.27;27.70;;;13.50;99.90;;;;;;5020001;28;20699;-48
2021/12/31 12:42:00;;;;;;;30.03;9.13;;;13.60;99.90;;;;;;5029713;28;20501;-48